Time;durP1;ratioP1;P1;durP2;ratioP2;P2;SDS_P1;SDS_P2;PMS_P1;PMS_P2;Temp;Humidity;BMP_temperature;BMP_pressure;BME280_temperature;BME280_humidity;BME280_pressure;Samples;Min_cycle;Max_cycle;Signal;HPM_P1;HPM_P2
2022/09/27 00:00:34;;;;;;;8.60;1.83;;;14.30;74.70;;;;;;4996682;28;20034;-81
2022/09/27 00:03:00;;;;;;;5.93;1.42;;;14.20;75.00;;;;;;5034115;28;20084;-81
2022/09/27 00:05:26;;;;;;;6.53;1.42;;;14.20;75.00;;;;;;5025162;28;20018;-81
2022/09/27 00:07:52;;;;;;;9.23;1.33;;;14.20;75.00;;;;;;4995440;28;20694;-81
2022/09/27 00:10:18;;;;;;;7.00;1.73;;;14.20;74.80;;;;;;4995027;28;20030;-81
2022/09/27 00:12:44;;;;;;;6.15;1.50;;;14.20;75.10;;;;;;4996653;28;20034;-81
2022/09/27 00:15:10;;;;;;;4.03;1.30;;;14.20;74.80;;;;;;4996685;28;20057;-81
2022/09/27 00:17:37;;;;;;;7.90;1.50;;;14.20;75.10;;;;;;4996445;28;20081;-81
2022/09/27 00:20:07;;;;;;;9.55;1.73;;;14.20;75.20;;;;;;5011414;28;20061;-81
2022/09/27 00:22:33;;;;;;;10.07;1.15;;;14.20;75.10;;;;;;5001009;28;20018;-81
2022/09/27 00:24:59;;;;;;;3.22;1.17;;;14.20;75.40;;;;;;4996730;28;20169;-81
2022/09/27 00:27:26;;;;;;;7.80;1.40;;;14.20;75.10;;;;;;4996408;28;20509;-81
2022/09/27 00:29:51;;;;;;;9.45;1.52;;;14.20;75.10;;;;;;4997068;28;20026;-81
2022/09/27 00:32:17;;;;;;;4.93;1.30;;;14.20;74.80;;;;;;4996160;28;20034;-80
2022/09/27 00:34:43;;;;;;;8.52;1.90;;;14.20;75.10;;;;;;4996815;28;20037;-81
2022/09/27 00:37:10;;;;;;;6.57;1.65;;;14.20;75.20;;;;;;5011393;28;20125;-81
2022/09/27 00:39:38;;;;;;;6.07;1.27;;;14.20;74.80;;;;;;4996277;28;20053;-81
2022/09/27 00:42:05;;;;;;;2.10;0.90;;;14.20;74.90;;;;;;4994188;28;20089;-80
2022/09/27 00:44:37;;;;;;;3.10;1.17;;;14.20;74.70;;;;;;4995465;28;20053;-80
2022/09/27 00:47:21;;;;;;;6.90;2.10;;;14.20;74.60;;;;;;4995888;28;20057;-80
2022/09/27 00:50:07;;;;;;;5.68;1.20;;;14.20;74.60;;;;;;4996532;28;20027;-81
2022/09/27 00:52:33;;;;;;;3.70;0.90;;;14.10;74.70;;;;;;4978246;28;20594;-81
2022/09/27 00:55:05;;;;;;;4.32;1.10;;;14.10;74.70;;;;;;4996003;28;20022;-80
2022/09/27 00:57:31;;;;;;;7.22;1.30;;;14.10;74.70;;;;;;4995945;28;20030;-80
2022/09/27 01:00:08;;;;;;;6.38;1.50;;;14.00;74.90;;;;;;4995951;28;20038;-80
2022/09/27 01:02:37;;;;;;;4.97;1.02;;;14.00;74.80;;;;;;4995177;28;20023;-82
2022/09/27 01:05:04;;;;;;;4.97;1.00;;;13.90;74.80;;;;;;4996151;28;20057;-81
2022/09/27 01:07:30;;;;;;;4.15;1.15;;;14.00;75.20;;;;;;4996044;28;20022;-81
2022/09/27 01:09:56;;;;;;;3.47;1.23;;;13.90;75.10;;;;;;4994831;28;20106;-81
2022/09/27 01:12:59;;;;;;;6.68;1.23;;;14.00;74.90;;;;;;4995841;28;20032;-80
2022/09/27 01:15:42;;;;;;;7.07;1.13;;;14.00;75.30;;;;;;4996254;28;20089;-80
2022/09/27 01:18:29;;;;;;;4.72;1.17;;;14.00;74.70;;;;;;4995696;28;20038;-81
2022/09/27 01:21:20;;;;;;;5.57;1.35;;;14.00;75.20;;;;;;4994875;28;20343;-81
2022/09/27 01:24:22;;;;;;;3.28;1.25;;;14.00;75.10;;;;;;5003641;28;20019;-81
2022/09/27 01:27:25;;;;;;;3.72;1.02;;;14.00;74.90;;;;;;4995627;28;20030;-80
2022/09/27 01:30:09;;;;;;;5.10;1.55;;;14.10;74.80;;;;;;4995730;28;20053;-80
2022/09/27 01:32:46;;;;;;;3.13;1.20;;;14.00;74.70;;;;;;4995525;28;20026;-80
2022/09/27 01:35:27;;;;;;;1.58;0.80;;;14.00;74.90;;;;;;4996516;28;20026;-80
2022/09/27 01:38:08;;;;;;;5.00;1.50;;;14.00;74.90;;;;;;4995731;28;20032;-80
2022/09/27 01:40:44;;;;;;;7.43;1.45;;;14.00;75.10;;;;;;5010337;28;20050;-80
2022/09/27 01:43:33;;;;;;;5.15;1.15;;;14.00;74.90;;;;;;4995671;28;20105;-80
2022/09/27 01:46:19;;;;;;;4.97;1.23;;;14.00;74.90;;;;;;5014822;28;20049;-80
2022/09/27 01:48:48;;;;;;;4.25;1.27;;;14.00;75.00;;;;;;5012864;28;20033;-80
2022/09/27 01:51:29;;;;;;;4.80;0.73;;;14.00;75.20;;;;;;4978169;28;20034;-81
2022/09/27 01:54:01;;;;;;;10.13;1.40;;;14.00;75.00;;;;;;4998082;28;20034;-81
2022/09/27 01:56:51;;;;;;;2.90;0.90;;;14.00;75.00;;;;;;4999526;28;20090;-81
2022/09/27 01:59:21;;;;;;;3.45;1.10;;;14.00;75.70;;;;;;4998755;28;20411;-80
2022/09/27 02:01:50;;;;;;;5.20;1.55;;;14.10;75.50;;;;;;4998837;28;20403;-81
2022/09/27 02:04:21;;;;;;;3.47;1.63;;;14.00;75.30;;;;;;4999125;28;20073;-80
2022/09/27 02:06:52;;;;;;;8.35;1.10;;;14.10;75.30;;;;;;5014744;28;20026;-81
2022/09/27 02:09:27;;;;;;;6.72;1.48;;;14.20;75.30;;;;;;4998962;28;20030;-80
2022/09/27 02:11:58;;;;;;;4.72;0.85;;;14.10;75.30;;;;;;4999418;28;20034;-80
2022/09/27 02:14:46;;;;;;;5.68;1.23;;;14.20;75.20;;;;;;4997884;28;20466;-81
2022/09/27 02:17:43;;;;;;;2.65;1.35;;;14.20;75.20;;;;;;4999019;28;20023;-81
2022/09/27 02:20:18;;;;;;;5.57;0.93;;;14.20;75.40;;;;;;4998389;28;20045;-81
2022/09/27 02:22:49;;;;;;;6.03;1.23;;;14.20;75.40;;;;;;5007297;28;20128;-81
2022/09/27 02:25:29;;;;;;;5.32;1.20;;;14.10;75.30;;;;;;5018386;28;20021;-81
2022/09/27 02:28:14;;;;;;;8.93;1.27;;;14.10;75.40;;;;;;5018413;28;20022;-81
2022/09/27 02:30:54;;;;;;;3.63;1.08;;;14.10;75.40;;;;;;5008354;28;20030;-81
2022/09/27 02:33:25;;;;;;;4.22;1.30;;;14.10;75.40;;;;;;4998548;28;20058;-80
2022/09/27 02:35:51;;;;;;;4.13;1.05;;;14.10;75.60;;;;;;4998335;28;20042;-81
2022/09/27 02:38:18;;;;;;;9.07;1.40;;;14.20;75.60;;;;;;4997640;28;20027;-81
2022/09/27 02:40:45;;;;;;;6.95;1.15;;;14.20;75.50;;;;;;4998711;28;20034;-81
2022/09/27 02:43:13;;;;;;;6.45;1.30;;;14.20;75.70;;;;;;4998352;28;20053;-81
2022/09/27 02:46:04;;;;;;;3.33;1.10;;;14.20;75.60;;;;;;5010077;28;20046;-81
2022/09/27 02:48:58;;;;;;;5.75;0.80;;;14.20;75.70;;;;;;4979232;28;20030;-81
2022/09/27 02:51:38;;;;;;;7.90;2.20;;;14.30;75.80;;;;;;4978746;28;20034;-81
2022/09/27 02:54:19;;;;;;;3.42;1.10;;;14.20;75.60;;;;;;5010044;28;20030;-81
2022/09/27 02:57:16;;;;;;;3.85;1.58;;;14.20;75.50;;;;;;4978660;28;20042;-81
2022/09/27 02:59:54;;;;;;;6.28;1.05;;;14.20;75.50;;;;;;4978521;28;20023;-83
2022/09/27 03:02:42;;;;;;;4.35;1.05;;;14.20;76.00;;;;;;4978447;28;20030;-82
2022/09/27 03:05:16;;;;;;;5.78;1.40;;;14.20;76.60;;;;;;4977872;28;20119;-82
2022/09/27 03:07:42;;;;;;;12.00;2.28;;;14.20;77.10;;;;;;4978516;28;20101;-82
2022/09/27 03:10:19;;;;;;;5.95;1.17;;;14.20;77.10;;;;;;4978465;28;20054;-81
2022/09/27 03:12:45;;;;;;;4.47;1.35;;;14.20;77.20;;;;;;4978111;28;20094;-81
2022/09/27 03:15:11;;;;;;;5.85;1.27;;;14.10;77.40;;;;;;4977637;28;20031;-81
2022/09/27 03:17:37;;;;;;;7.75;1.35;;;14.10;77.40;;;;;;4978652;28;20348;-81
2022/09/27 03:20:03;;;;;;;5.13;1.15;;;14.10;77.30;;;;;;4978205;28;20034;-81
2022/09/27 03:22:28;;;;;;;11.15;1.98;;;14.00;77.40;;;;;;4984729;28;20038;-81
2022/09/27 03:24:54;;;;;;;8.00;1.73;;;14.00;77.80;;;;;;5012852;28;20073;-81
2022/09/27 03:27:20;;;;;;;10.48;1.55;;;14.00;77.80;;;;;;5012530;28;20028;-81
2022/09/27 03:29:45;;;;;;;8.63;1.55;;;14.00;77.60;;;;;;4997596;28;20033;-82
2022/09/27 03:32:11;;;;;;;2.85;1.15;;;14.00;77.60;;;;;;4980798;28;20031;-81
2022/09/27 03:34:37;;;;;;;5.97;1.45;;;14.00;77.50;;;;;;4977794;28;20119;-81
2022/09/27 03:37:02;;;;;;;4.55;1.48;;;14.00;77.70;;;;;;4993089;28;20031;-81
2022/09/27 03:39:28;;;;;;;7.70;1.50;;;13.90;77.80;;;;;;4977944;28;20037;-81
2022/09/27 03:41:54;;;;;;;6.50;1.45;;;13.90;77.80;;;;;;4977629;28;20062;-81
2022/09/27 03:44:19;;;;;;;5.22;1.48;;;13.80;78.30;;;;;;4981725;28;20118;-81
2022/09/27 03:46:45;;;;;;;5.80;1.48;;;13.80;78.20;;;;;;5016643;28;20695;-81
2022/09/27 03:49:11;;;;;;;6.97;1.67;;;13.80;78.10;;;;;;5003166;28;20019;-81
2022/09/27 03:51:36;;;;;;;5.10;1.90;;;13.80;77.90;;;;;;4996284;28;20030;-81
2022/09/27 03:54:02;;;;;;;5.72;1.30;;;13.70;77.90;;;;;;4997091;28;20027;-81
2022/09/27 03:56:35;;;;;;;8.35;1.63;;;13.70;78.00;;;;;;4997106;28;20045;-81
2022/09/27 03:59:01;;;;;;;6.57;1.30;;;13.70;78.10;;;;;;4996971;28;20026;-81
2022/09/27 04:01:27;;;;;;;6.50;1.45;;;13.70;78.10;;;;;;4997083;28;20092;-82
2022/09/27 04:03:53;;;;;;;4.72;1.42;;;13.70;78.30;;;;;;4996964;28;20033;-81
2022/09/27 04:06:19;;;;;;;4.50;1.17;;;13.70;78.20;;;;;;4997323;28;20117;-81
2022/09/27 04:08:45;;;;;;;1.98;0.98;;;13.70;78.00;;;;;;4996708;28;20077;-81
2022/09/27 04:11:11;;;;;;;6.35;1.10;;;13.70;78.10;;;;;;4996148;28;20764;-81
2022/09/27 04:13:37;;;;;;;10.50;1.50;;;13.70;78.10;;;;;;4997473;28;20108;-81
2022/09/27 04:16:03;;;;;;;11.00;1.52;;;13.70;77.90;;;;;;4995796;28;20062;-82
2022/09/27 04:18:29;;;;;;;5.55;1.17;;;13.70;78.00;;;;;;5015385;28;20060;-81
2022/09/27 04:20:54;;;;;;;7.57;1.45;;;13.70;78.00;;;;;;5002751;28;20038;-78
2022/09/27 04:23:20;;;;;;;4.63;1.13;;;13.70;77.80;;;;;;5009449;28;20021;-79
2022/09/27 04:25:46;;;;;;;8.82;1.60;;;13.70;77.70;;;;;;5016066;28;20034;-80
2022/09/27 04:28:12;;;;;;;7.10;2.42;;;13.70;77.80;;;;;;4984578;28;20074;-78
2022/09/27 04:30:40;;;;;;;2.38;1.23;;;13.70;77.60;;;;;;4980598;28;20034;-86
2022/09/27 04:33:06;;;;;;;6.57;1.15;;;13.70;77.70;;;;;;5015041;28;20504;-77
2022/09/27 04:38:19;;;;;;;5.05;1.20;;;13.60;77.90;;;;;;4995633;28;20037;-78
2022/09/27 04:40:46;;;;;;;6.28;1.58;;;13.70;77.80;;;;;;4996062;28;20398;-78
2022/09/27 04:43:11;;;;;;;3.53;1.27;;;13.70;77.80;;;;;;4995289;28;20027;-78
2022/09/27 04:45:37;;;;;;;4.97;1.40;;;13.70;77.80;;;;;;4995203;28;20077;-78
2022/09/27 04:48:02;;;;;;;5.28;1.80;;;13.80;77.80;;;;;;4993910;28;20086;-78
2022/09/27 04:50:28;;;;;;;4.15;1.17;;;13.70;77.60;;;;;;4994847;28;20026;-80
2022/09/27 04:52:54;;;;;;;5.18;1.63;;;13.70;77.70;;;;;;4994954;28;20460;-78
2022/09/27 04:55:21;;;;;;;5.18;1.30;;;13.80;77.90;;;;;;4994276;28;20493;-78
2022/09/27 04:57:47;;;;;;;9.18;2.17;;;13.80;77.70;;;;;;4993938;28;20383;-79
2022/09/27 05:00:14;;;;;;;6.93;1.90;;;13.80;77.70;;;;;;4994365;28;20045;-77
2022/09/27 05:02:42;;;;;;;3.58;1.30;;;13.80;77.60;;;;;;5003073;28;20018;-80
2022/09/27 05:05:09;;;;;;;3.42;1.40;;;13.80;77.70;;;;;;5014065;28;20032;-81
2022/09/27 05:07:36;;;;;;;4.00;1.58;;;13.70;78.00;;;;;;5010717;28;20050;-82
2022/09/27 05:10:13;;;;;;;5.00;2.00;;;13.70;77.70;;;;;;4978826;28;20097;-82
2022/09/27 05:12:39;;;;;;;7.80;1.45;;;13.70;77.80;;;;;;5029648;28;20080;-82
2022/09/27 05:15:05;;;;;;;6.38;1.52;;;13.70;77.90;;;;;;5010661;28;20030;-81
2022/09/27 05:17:31;;;;;;;6.25;1.33;;;13.70;77.90;;;;;;4995839;28;20026;-82
2022/09/27 05:19:56;;;;;;;7.63;1.60;;;13.70;77.70;;;;;;5004614;28;20080;-78
2022/09/27 05:22:22;;;;;;;7.90;1.52;;;13.70;77.80;;;;;;5013597;28;20030;-82
2022/09/27 05:24:48;;;;;;;1.15;0.90;;;13.70;77.70;;;;;;4996202;28;20517;-82
2022/09/27 05:27:22;;;;;;;6.82;1.70;;;13.70;77.50;;;;;;4994351;28;20030;-80
2022/09/27 05:29:49;;;;;;;7.35;1.90;;;13.60;77.60;;;;;;5000988;28;20553;-83
2022/09/27 05:32:15;;;;;;;2.38;1.20;;;13.60;77.60;;;;;;5000007;28;20713;-81
2022/09/27 05:34:41;;;;;;;2.53;1.30;;;13.60;77.80;;;;;;5000288;28;20057;-81
2022/09/27 05:37:07;;;;;;;8.95;1.83;;;13.60;78.00;;;;;;5009099;28;20018;-83
2022/09/27 05:39:33;;;;;;;3.05;1.02;;;13.60;77.70;;;;;;5002349;28;20781;-83
2022/09/27 05:41:58;;;;;;;6.55;1.35;;;13.60;77.80;;;;;;5000660;28;20031;-82
2022/09/27 05:44:26;;;;;;;4.13;1.40;;;13.70;77.80;;;;;;5000062;28;20498;-84
2022/09/27 05:46:52;;;;;;;2.95;1.13;;;13.70;77.60;;;;;;5015132;28;20224;-82
2022/09/27 05:49:19;;;;;;;10.30;1.65;;;13.70;77.50;;;;;;4999702;28;20105;-83
2022/09/27 05:51:44;;;;;;;7.82;1.45;;;13.70;77.30;;;;;;5000972;28;20173;-84
2022/09/27 05:54:10;;;;;;;6.47;1.63;;;13.70;77.30;;;;;;5034239;28;20057;-83
2022/09/27 05:56:35;;;;;;;5.13;1.52;;;13.70;77.30;;;;;;5020127;28;20087;-84
2022/09/27 05:59:01;;;;;;;5.43;1.48;;;13.70;77.40;;;;;;5019468;28;20045;-83
2022/09/27 06:01:29;;;;;;;15.15;2.50;;;13.70;77.30;;;;;;5001709;28;20026;-84
2022/09/27 06:03:55;;;;;;;7.63;1.88;;;13.70;77.20;;;;;;5016354;28;20027;-83
2022/09/27 06:06:24;;;;;;;5.35;1.67;;;13.70;77.20;;;;;;5000676;28;20498;-83
2022/09/27 06:08:49;;;;;;;6.82;1.27;;;13.70;77.10;;;;;;5001323;28;20108;-83
2022/09/27 06:11:15;;;;;;;7.82;1.30;;;13.70;77.10;;;;;;5008635;28;20064;-82
2022/09/27 06:13:41;;;;;;;3.70;1.27;;;13.70;77.20;;;;;;5019965;28;20089;-83
2022/09/27 06:16:10;;;;;;;4.63;1.80;;;13.60;77.20;;;;;;5001819;28;20026;-83
2022/09/27 06:18:38;;;;;;;3.88;1.13;;;13.60;77.00;;;;;;5000055;28;20034;-81
2022/09/27 06:21:05;;;;;;;10.80;1.98;;;13.50;76.90;;;;;;5000245;28;20035;-83
2022/09/27 06:23:31;;;;;;;3.22;1.23;;;13.50;77.10;;;;;;5013661;28;20049;-83
2022/09/27 06:26:02;;;;;;;3.03;1.15;;;13.50;77.30;;;;;;5000689;28;20509;-81
2022/09/27 06:28:28;;;;;;;10.98;1.52;;;13.60;77.30;;;;;;4999177;28;20022;-82
2022/09/27 06:30:54;;;;;;;8.93;1.40;;;13.60;77.30;;;;;;4998909;28;20033;-82
2022/09/27 06:33:20;;;;;;;4.68;1.50;;;13.70;77.10;;;;;;4998724;28;20045;-83
2022/09/27 06:35:47;;;;;;;9.43;1.50;;;13.70;77.00;;;;;;4998932;28;20607;-82
2022/09/27 06:38:15;;;;;;;8.10;1.50;;;13.70;77.20;;;;;;4998933;28;20561;-83
2022/09/27 06:40:45;;;;;;;2.40;1.50;;;13.70;77.00;;;;;;4998166;28;20094;-82
2022/09/27 06:43:14;;;;;;;3.60;1.30;;;13.70;77.20;;;;;;4997712;28;20027;-82
2022/09/27 06:45:40;;;;;;;9.20;1.70;;;13.80;77.10;;;;;;4998981;28;20053;-82
2022/09/27 06:48:07;;;;;;;6.88;1.80;;;13.80;77.20;;;;;;4998676;28;20026;-82
2022/09/27 06:50:35;;;;;;;5.68;1.15;;;13.80;77.30;;;;;;4981095;28;20041;-82
2022/09/27 06:53:02;;;;;;;6.85;1.40;;;13.80;77.20;;;;;;5000135;28;20680;-82
2022/09/27 06:55:27;;;;;;;3.83;1.17;;;13.80;77.10;;;;;;4998024;28;20026;-82
2022/09/27 07:00:43;;;;;;;7.20;2.08;;;13.90;76.90;;;;;;5002834;28;20037;-82
2022/09/27 07:03:10;;;;;;;8.32;1.58;;;14.00;76.50;;;;;;5018457;28;20020;-82
2022/09/27 07:05:43;;;;;;;4.07;1.30;;;14.00;76.40;;;;;;5005173;28;20125;-82
2022/09/27 07:08:11;;;;;;;7.07;1.70;;;14.00;76.60;;;;;;4999165;28;20018;-82
2022/09/27 07:10:38;;;;;;;10.10;1.88;;;14.00;76.30;;;;;;5002712;28;20049;-82
2022/09/27 07:13:09;;;;;;;9.32;1.63;;;14.00;76.40;;;;;;5007152;28;20038;-82
2022/09/27 07:15:37;;;;;;;;;;;14.00;76.60;;;;;;4998597;28;20034;-81
2022/09/27 07:18:04;;;;;;;8.93;1.42;;;14.00;76.40;;;;;;4998105;28;19906;-82
2022/09/27 07:20:31;;;;;;;4.75;1.42;;;14.10;76.20;;;;;;4997906;28;20022;-82
2022/09/27 07:22:58;;;;;;;9.43;1.67;;;14.20;76.30;;;;;;5007924;28;20462;-82
2022/09/27 07:25:25;;;;;;;3.63;1.13;;;14.10;76.10;;;;;;5017865;28;20053;-82
2022/09/27 07:27:53;;;;;;;8.60;1.75;;;14.20;76.10;;;;;;5014118;28;20025;-82
2022/09/27 07:30:20;;;;;;;6.47;1.73;;;14.20;76.10;;;;;;4996593;28;20030;-82
2022/09/27 07:32:46;;;;;;;9.75;2.00;;;14.30;75.90;;;;;;4997600;28;20037;-82
2022/09/27 07:35:15;;;;;;;8.68;1.75;;;14.20;75.90;;;;;;5013062;28;20030;-82
2022/09/27 07:37:41;;;;;;;7.30;1.50;;;14.30;75.90;;;;;;4997826;28;20030;-82
2022/09/27 07:40:09;;;;;;;9.00;1.60;;;14.30;75.70;;;;;;4998701;28;20042;-82
2022/09/27 07:42:40;;;;;;;6.55;1.42;;;14.30;75.90;;;;;;4998428;28;20026;-82
2022/09/27 07:45:07;;;;;;;8.73;1.60;;;14.40;75.80;;;;;;4998218;28;20042;-82
2022/09/27 07:47:33;;;;;;;5.25;2.10;;;14.30;75.80;;;;;;4997893;28;20025;-82
2022/09/27 07:49:58;;;;;;;4.50;1.98;;;14.30;75.50;;;;;;4997969;28;20116;-81
2022/09/27 07:52:24;;;;;;;6.43;1.25;;;14.30;75.70;;;;;;4998179;28;20081;-82
2022/09/27 07:54:50;;;;;;;6.68;2.17;;;14.40;75.50;;;;;;5000656;28;20489;-82
2022/09/27 07:57:16;;;;;;;3.78;1.33;;;14.40;75.60;;;;;;5017708;28;20815;-82
2022/09/27 07:59:41;;;;;;;6.07;1.52;;;14.40;75.50;;;;;;5017038;28;20033;-82
2022/09/27 08:02:15;;;;;;;4.57;1.13;;;14.50;75.40;;;;;;5015513;28;20030;-82
2022/09/27 08:04:46;;;;;;;9.75;1.95;;;14.60;75.30;;;;;;5005586;28;20084;-82
2022/09/27 08:07:11;;;;;;;;;;;14.50;75.40;;;;;;4997553;28;20030;-82
2022/09/27 08:09:37;;;;;;;3.85;1.27;;;14.60;75.20;;;;;;4997096;28;20005;-81
2022/09/27 08:12:03;;;;;;;4.20;1.15;;;14.80;75.10;;;;;;5012902;28;20057;-81
2022/09/27 08:14:29;;;;;;;5.63;1.92;;;15.00;75.00;;;;;;4999069;28;20157;-81
2022/09/27 08:16:55;;;;;;;6.47;1.40;;;15.10;74.50;;;;;;5016606;28;20513;-81
2022/09/27 08:19:22;;;;;;;9.80;1.60;;;15.20;74.20;;;;;;5005277;28;20018;-81
2022/09/27 08:21:50;;;;;;;4.80;1.10;;;15.20;74.30;;;;;;4997392;28;20054;-82
2022/09/27 08:24:15;;;;;;;6.30;1.67;;;15.20;74.30;;;;;;4998918;28;20018;-82
2022/09/27 08:26:41;;;;;;;7.88;1.98;;;15.20;74.00;;;;;;4994888;28;20038;-82
2022/09/27 08:29:07;;;;;;;10.20;1.73;;;15.30;74.20;;;;;;4997837;28;20022;-82
2022/09/27 08:31:32;;;;;;;10.38;1.48;;;15.30;74.40;;;;;;4995942;28;20058;-82
2022/09/27 08:33:58;;;;;;;10.20;1.52;;;15.50;74.30;;;;;;4997017;28;20030;-82
2022/09/27 08:36:24;;;;;;;7.53;1.92;;;15.50;73.50;;;;;;4996578;28;20054;-82
2022/09/27 08:38:50;;;;;;;9.75;1.33;;;15.60;73.90;;;;;;4997186;28;20069;-82
2022/09/27 08:41:37;;;;;;;4.47;1.13;;;15.60;73.60;;;;;;4997378;28;20038;-83
2022/09/27 08:44:21;;;;;;;10.73;1.35;;;15.60;73.60;;;;;;4997003;28;20022;-82
2022/09/27 08:47:09;;;;;;;3.17;1.38;;;15.80;73.00;;;;;;4996779;28;20065;-83
2022/09/27 08:50:20;;;;;;;11.98;2.15;;;15.90;73.40;;;;;;5011504;28;20105;-81
2022/09/27 08:52:47;;;;;;;;;;;15.80;73.00;;;;;;4997106;28;20504;-82
2022/09/27 08:55:31;;;;;;;9.00;2.05;;;15.80;72.70;;;;;;4996335;28;19910;-81
2022/09/27 08:57:58;;;;;;;6.70;1.30;;;15.80;72.40;;;;;;4995116;28;20470;-82
2022/09/27 09:00:26;;;;;;;11.07;1.70;;;15.90;72.20;;;;;;4995301;28;20121;-81
2022/09/27 09:02:52;;;;;;;7.40;1.52;;;16.00;72.60;;;;;;5011183;28;20077;-81
2022/09/27 09:05:33;;;;;;;12.20;1.80;;;15.90;71.80;;;;;;4996406;28;20026;-81
2022/09/27 09:08:11;;;;;;;5.53;1.85;;;15.90;71.60;;;;;;4998200;28;20068;-81
2022/09/27 09:13:42;;;;;;;12.30;2.35;;;16.10;71.40;;;;;;5007551;28;20125;-81
2022/09/27 09:16:16;;;;;;;5.00;1.45;;;16.20;70.70;;;;;;4996799;28;20387;-81
2022/09/27 09:18:51;;;;;;;13.38;2.58;;;16.50;71.30;;;;;;5012293;28;20082;-81
2022/09/27 09:21:34;;;;;;;9.60;2.03;;;16.60;69.90;;;;;;4996302;28;20044;-81
2022/09/27 09:24:20;;;;;;;11.35;1.85;;;16.70;69.80;;;;;;4997337;28;20026;-81
2022/09/27 09:27:10;;;;;;;12.38;1.67;;;16.70;69.20;;;;;;5015447;28;20037;-81
2022/09/27 09:29:58;;;;;;;14.23;1.98;;;16.70;69.60;;;;;;4996876;28;20019;-81
2022/09/27 09:32:52;;;;;;;16.35;2.15;;;16.80;67.80;;;;;;5015430;28;20052;-81
2022/09/27 09:35:25;;;;;;;10.63;1.80;;;16.90;68.00;;;;;;5009528;28;20037;-81
2022/09/27 09:38:15;;;;;;;13.95;2.45;;;16.90;67.20;;;;;;5011465;28;20058;-80
2022/09/27 09:40:52;;;;;;;10.63;1.55;;;16.90;67.90;;;;;;4995951;28;20030;-80
2022/09/27 09:43:31;;;;;;;13.45;2.45;;;17.00;67.70;;;;;;4996666;28;20044;-81
2022/09/27 09:46:09;;;;;;;10.32;1.95;;;17.00;66.00;;;;;;4995805;28;20057;-81
2022/09/27 09:48:50;;;;;;;12.85;2.25;;;17.20;66.10;;;;;;4994927;28;20058;-81
2022/09/27 09:51:21;;;;;;;10.98;1.80;;;17.30;65.20;;;;;;5002546;28;20026;-82
2022/09/27 09:54:13;;;;;;;8.23;2.13;;;17.50;64.30;;;;;;5015759;28;20037;-82
2022/09/27 09:56:47;;;;;;;13.80;2.53;;;17.50;62.80;;;;;;5015445;28;20033;-80
2022/09/27 09:59:27;;;;;;;11.82;2.63;;;17.60;62.80;;;;;;5000671;28;20092;-81
2022/09/27 10:01:54;;;;;;;;;;;17.60;63.20;;;;;;4996632;28;20030;-81
2022/09/27 10:04:28;;;;;;;14.70;1.70;;;17.60;62.90;;;;;;5011408;28;20274;-81
2022/09/27 10:06:58;;;;;;;9.02;1.92;;;17.50;62.30;;;;;;4996657;28;20117;-81
2022/09/27 10:09:26;;;;;;;7.80;2.72;;;17.60;62.20;;;;;;4995140;28;20059;-81
2022/09/27 10:11:52;;;;;;;11.63;1.70;;;17.70;62.20;;;;;;5025028;28;20044;-81
2022/09/27 10:14:20;;;;;;;10.38;1.92;;;17.80;61.20;;;;;;5017485;28;20026;-81
2022/09/27 10:16:54;;;;;;;11.55;1.80;;;17.90;61.10;;;;;;5004427;28;20039;-81
2022/09/27 10:19:29;;;;;;;9.90;1.80;;;17.90;60.90;;;;;;4999980;28;20038;-82
2022/09/27 10:22:09;;;;;;;6.57;1.80;;;17.80;60.10;;;;;;4999374;28;20094;-81
2022/09/27 10:25:01;;;;;;;11.32;1.98;;;17.80;60.20;;;;;;5018326;28;20057;-81
2022/09/27 10:27:36;;;;;;;9.75;1.80;;;17.70;60.40;;;;;;4999161;28;20027;-80
2022/09/27 10:30:02;;;;;;;8.68;2.03;;;17.70;61.10;;;;;;5014185;28;20050;-82
2022/09/27 10:32:34;;;;;;;14.13;2.53;;;17.80;60.50;;;;;;5014237;28;20034;-81
2022/09/27 10:35:35;;;;;;;10.93;1.70;;;18.00;58.30;;;;;;4998951;28;20030;-82
2022/09/27 10:38:21;;;;;;;10.98;2.13;;;18.10;57.90;;;;;;4998883;28;20065;-81
2022/09/27 10:40:49;;;;;;;10.73;1.77;;;18.20;58.40;;;;;;4998812;28;20564;-81
2022/09/27 10:43:26;;;;;;;12.88;2.58;;;18.20;57.70;;;;;;5013699;28;20102;-81
2022/09/27 10:46:03;;;;;;;11.05;2.20;;;18.20;57.90;;;;;;5014068;28;20046;-80
2022/09/27 10:48:29;;;;;;;13.77;2.30;;;18.10;57.60;;;;;;5004046;28;20034;-80
2022/09/27 10:51:03;;;;;;;11.38;2.30;;;18.10;57.70;;;;;;5014553;28;20576;-81
2022/09/27 10:53:31;;;;;;;13.35;2.13;;;18.10;57.70;;;;;;5000923;28;20079;-81
2022/09/27 10:55:58;;;;;;;17.52;2.20;;;18.00;58.70;;;;;;5001357;28;20026;-82
2022/09/27 10:58:30;;;;;;;11.85;2.38;;;18.00;57.70;;;;;;4998562;28;20053;-81
2022/09/27 11:01:06;;;;;;;12.02;2.45;;;18.00;57.50;;;;;;4998504;28;20026;-81
2022/09/27 11:03:36;;;;;;;13.05;2.28;;;17.90;56.80;;;;;;4998625;28;20022;-81
2022/09/27 11:06:36;;;;;;;7.90;1.52;;;17.90;57.10;;;;;;5000535;28;20037;-81
2022/09/27 11:09:23;;;;;;;20.25;4.10;;;17.90;57.00;;;;;;5017745;28;20128;-81
2022/09/27 11:11:49;;;;;;;21.80;5.43;;;17.80;57.60;;;;;;5017890;28;20445;-81
2022/09/27 11:14:23;;;;;;;14.70;3.10;;;17.80;57.90;;;;;;5017972;28;20113;-82
2022/09/27 11:17:07;;;;;;;7.50;1.95;;;17.80;57.10;;;;;;5017467;28;20038;-81
2022/09/27 11:19:55;;;;;;;16.92;4.18;;;17.70;57.60;;;;;;4998264;28;20026;-82
2022/09/27 11:22:36;;;;;;;10.77;2.42;;;17.80;58.70;;;;;;5003501;28;20555;-81
2022/09/27 11:25:28;;;;;;;20.65;4.80;;;17.90;57.80;;;;;;5000048;28;20029;-80
2022/09/27 11:28:24;;;;;;;10.48;4.25;;;18.10;58.50;;;;;;5017526;28;20477;-80
2022/09/27 11:31:02;;;;;;;11.55;2.55;;;18.10;58.40;;;;;;4997764;28;20094;-81
2022/09/27 11:33:53;;;;;;;11.52;2.00;;;18.10;58.60;;;;;;4997627;28;20660;-82
2022/09/27 11:36:21;;;;;;;;;;;18.10;57.80;;;;;;4998362;28;20026;-81
2022/09/27 11:39:24;;;;;;;16.50;3.65;;;18.20;57.80;;;;;;4997943;28;19910;-81
2022/09/27 11:41:56;;;;;;;23.13;3.30;;;18.30;58.00;;;;;;4997750;28;20038;-81
2022/09/27 11:44:34;;;;;;;18.70;3.70;;;18.30;59.40;;;;;;4998414;28;20035;-81
2022/09/27 11:47:20;;;;;;;20.00;5.38;;;18.30;59.90;;;;;;4998117;28;20031;-81
2022/09/27 11:50:23;;;;;;;22.23;6.75;;;18.20;59.10;;;;;;5012677;28;20113;-81
2022/09/27 11:53:14;;;;;;;23.95;7.05;;;18.20;60.10;;;;;;4997798;28;20054;-80
2022/09/27 11:56:12;;;;;;;11.52;4.07;;;18.20;59.70;;;;;;5002827;28;20022;-81
2022/09/27 11:58:57;;;;;;;14.02;2.75;;;18.20;59.80;;;;;;4999488;28;20033;-81
2022/09/27 12:01:46;;;;;;;13.18;2.42;;;18.30;58.50;;;;;;5016894;28;20058;-81
2022/09/27 12:04:38;;;;;;;11.30;2.50;;;18.40;57.90;;;;;;4997295;28;20030;-81
2022/09/27 12:07:19;;;;;;;15.38;3.63;;;18.50;58.60;;;;;;4997411;28;20026;-81
2022/09/27 12:09:50;;;;;;;14.90;2.42;;;18.50;59.00;;;;;;4997508;28;20110;-80
2022/09/27 12:12:22;;;;;;;15.20;2.95;;;18.50;58.50;;;;;;5014489;28;20025;-80
2022/09/27 12:14:54;;;;;;;14.50;2.70;;;18.60;59.00;;;;;;4997797;28;20449;-81
2022/09/27 12:17:25;;;;;;;15.60;2.45;;;18.70;58.80;;;;;;4997046;28;20486;-81
2022/09/27 12:19:54;;;;;;;11.70;2.08;;;18.60;59.10;;;;;;4997327;28;20109;-80
2022/09/27 12:23:15;;;;;;;16.30;3.05;;;18.60;59.10;;;;;;5001771;28;20390;-81
2022/09/27 12:25:42;;;;;;;14.65;3.08;;;18.50;59.80;;;;;;4978317;28;20077;-80
2022/09/27 12:28:17;;;;;;;11.23;3.00;;;18.40;59.80;;;;;;4997396;28;20022;-81
2022/09/27 12:30:48;;;;;;;13.18;2.60;;;18.40;60.40;;;;;;4997215;28;20034;-81
2022/09/27 12:33:17;;;;;;;17.80;5.03;;;18.30;60.40;;;;;;4995100;28;20088;-82
2022/09/27 12:35:50;;;;;;;16.80;3.00;;;18.30;60.50;;;;;;5011981;28;20038;-81
2022/09/27 12:38:25;;;;;;;12.07;3.05;;;18.30;60.20;;;;;;4996541;28;20034;-81
2022/09/27 12:40:54;;;;;;;19.77;3.05;;;18.40;60.00;;;;;;4997156;28;20038;-81
2022/09/27 12:43:30;;;;;;;17.40;3.80;;;18.40;59.70;;;;;;5012658;28;20498;-81
2022/09/27 12:45:56;;;;;;;20.17;6.63;;;18.50;59.90;;;;;;4996627;28;20466;-80
2022/09/27 12:48:32;;;;;;;10.82;3.30;;;18.50;60.00;;;;;;4996920;28;20046;-82
2022/09/27 12:51:10;;;;;;;12.10;2.90;;;18.60;60.80;;;;;;4997077;28;20037;-80
2022/09/27 12:54:09;;;;;;;14.40;2.20;;;18.60;61.00;;;;;;4996850;28;20113;-80
2022/09/27 12:56:42;;;;;;;10.48;2.65;;;18.50;61.00;;;;;;4996813;28;20026;-80
2022/09/27 12:59:26;;;;;;;12.63;2.70;;;18.40;61.80;;;;;;4996812;28;20029;-80
2022/09/27 13:02:29;;;;;;;19.15;3.20;;;18.40;61.80;;;;;;4996516;28;20036;-80
2022/09/27 13:05:27;;;;;;;9.43;2.60;;;18.30;62.10;;;;;;4996214;28;20077;-81
2022/09/27 13:08:44;;;;;;;14.82;3.78;;;18.20;61.20;;;;;;4996565;28;20402;-82
2022/09/27 13:11:22;;;;;;;11.52;2.92;;;18.00;61.20;;;;;;5004976;28;20026;-81
2022/09/27 13:13:53;;;;;;;15.25;2.97;;;17.90;61.30;;;;;;5015793;28;20033;-81
2022/09/27 13:16:19;;;;;;;17.65;3.15;;;17.90;61.40;;;;;;5001122;28;20041;-80
2022/09/27 13:18:48;;;;;;;11.07;2.45;;;18.00;61.30;;;;;;4996259;28;20027;-80
2022/09/27 13:21:50;;;;;;;15.13;3.25;;;18.10;61.80;;;;;;5011396;28;20030;-80
2022/09/27 13:24:46;;;;;;;9.48;3.35;;;18.10;62.20;;;;;;5015588;28;20022;-80